Jackson, MS (39215)

4:06 PM CST on February 28, 2015 (GMT -0600)
Brinkly | Change Station
CLOSE
Current Station
Personal Weather Station
Location: Jackson, MS
Elevation: 344 ft
Nearby Weather Stations
Active Advisory: Flood Warning

Elev 344 ft 32.35 °N, 90.20 °W | Updated 7 minutes ago

Mostly Cloudy
Mostly Cloudy
67.5 °F
Feels Like 67.5 °F
N
2.7
Wind Variable Wind from ENE

Today
High -- | Low -- °F
--% Chance of Precip.
Yesterday
High -- | Low -- °F
Precip. -- in
6:29 AM 5:57 PM
Waxing Gibbous, 80% visible
Pressure 30.30 in
Visibility 10.0 miles
Clouds Overcast 10000 ft
Dew Point Not available.
Humidity Not available.
Rainfall 0.00 in
Snow Depth Not available.
UV 1 out of 12
Pollen 7.70 out of 12
Air Quality Not available.
Flu Activity Not available.
METAR KHKS 282153Z 09006KT 10SM OVC100 19/M02 A3031 RMK AO2 SLP260 T01941022

More Conditions Fewer Conditions

Pressure 30.30 in
Visibility 10.0 miles
Clouds Overcast 10000 ft
Dew Point Not available.
Humidity Not available.
Rainfall 0.00 in
Snow Depth Not available.
UV 1 out of 12
Pollen 7.70 out of 12
Air Quality Not available.
Flu Activity Not available.
METAR KHKS 282153Z 09006KT 10SM OVC100 19/M02 A3031 RMK AO2 SLP260 T01941022

More Conditions Fewer Conditions

10-Day Weather Forecast

Almanac

Astronomy

Feb. 28, 2015 Rise Set
Actual Time
Civil Twilight
Nautical Twilight
Astronomical Twilight
Moon
Length of Visible Light
Length of Day
Tomorrow will be .
, % of the Moon is Illuminated

Today's Extremes

State Highs State Lows

Community

WunderPhotos

Upload Photos

1,801,177 photos uploaded!

WunderBlogs® & News

Nearby

Air Quality

  Air Quality AQ Index Pollutant
Not available.

Snow Depth

Station Depth Elevation

Earthquake Activity

City Distance Mag. Time & Date
Minimum magnitude displayed is 2.5.

Coastal Water Temperatures

Place Temperature

Nearby Weather Stations

Flood Warning
Statement as of 9:58 AM CST on February 28, 2015


The Flood Warning continues for
the Big Black River near Bovina
* until further notice.
* At 6:00 am Saturday the stage was 29.8 feet.
* Minor flooding is occurring and minor flooding is forecast.
* Flood stage is 28.0 feet.
* Forecast... the river will continue rising to near 30.5 feet by
early Wednesday afternoon.
* Impact... at 28.0 feet... low-lying agricultural land near the river
begins to flood.


              Flood observed forecast 7 am crest
location stg stg day time sun Mon Tue crest time date

Lower Big Black River
Bovina 28 29.8 Sat 06 am 29.7 29.9 30.2 30.5 12 PM 03/04




Lat... Lon 3217 9093 3224 9078 3256 9064 3245 9052
      3218 9065 3204 9102